Time;durP1;ratioP1;P1;durP2;ratioP2;P2;SDS_P1;SDS_P2;PMS_P1;PMS_P2;Temp;Humidity;BMP_temperature;BMP_pressure;BME280_temperature;BME280_humidity;BME280_pressure;Samples;Min_cycle;Max_cycle;Signal;HPM_P1;HPM_P2
2022/03/05 00:00:40;;;;;;;115.30;40.53;;;;;;;0.63;81.14;97746.75;4942040;28;20043;-85
2022/03/05 00:03:06;;;;;;;101.90;37.35;;;;;;;0.69;81.48;97746.38;4975911;28;20059;-85
2022/03/05 00:05:32;;;;;;;119.22;40.38;;;;;;;0.72;81.47;97734.81;4975186;28;20046;-83
2022/03/05 00:07:58;;;;;;;114.72;38.75;;;;;;;0.78;80.88;97734.38;4975124;28;20059;-83
2022/03/05 00:10:24;;;;;;;105.80;37.30;;;;;;;0.78;81.07;97718.63;4975530;28;20058;-85
2022/03/05 00:12:51;;;;;;;96.68;39.05;;;;;;;0.79;80.76;97714.19;4957439;28;20125;-85
2022/03/05 00:15:18;;;;;;;95.18;35.65;;;;;;;0.86;80.93;97703.16;4973926;28;20042;-83
2022/03/05 00:17:45;;;;;;;104.88;34.97;;;;;;;0.83;80.79;97703.38;4957768;28;20517;-85
2022/03/05 00:20:11;;;;;;;98.95;35.83;;;;;;;0.85;80.26;97690.13;4957917;28;20042;-84
2022/03/05 00:22:37;;;;;;;109.00;37.10;;;;;;;1.04;80.41;97697.63;4974982;28;20047;-84
2022/03/05 00:25:04;;;;;;;87.78;33.80;;;;;;;1.12;80.05;97690.88;4974970;28;20050;-82
2022/03/05 00:27:30;;;;;;;91.13;34.40;;;;;;;1.09;79.86;97670.06;4941744;28;20517;-83
2022/03/05 00:29:56;;;;;;;100.03;33.95;;;;;;;1.11;80.11;97669.94;4957350;28;20050;-81
2022/03/05 00:32:22;;;;;;;111.07;35.45;;;;;;;1.10;79.73;97661.22;4974503;28;20450;-83
2022/03/05 00:34:48;;;;;;;87.82;30.85;;;;;;;1.10;80.10;97655.94;4941424;28;20047;-85
2022/03/05 00:37:14;;;;;;;104.32;34.63;;;;;;;1.10;80.44;97655.94;4957355;28;20487;-83
2022/03/05 00:39:40;;;;;;;87.95;30.10;;;;;;;1.13;80.11;97634.69;4974491;28;20054;-85
2022/03/05 00:42:06;;;;;;;82.15;29.05;;;;;;;1.15;79.90;97643.31;4974707;28;20138;-83
2022/03/05 00:44:33;;;;;;;87.75;29.13;;;;;;;1.21;79.85;97621.00;4974409;28;20046;-84
2022/03/05 00:46:59;;;;;;;87.28;27.58;;;;;;;1.16;80.09;97623.09;4956454;28;20541;-83
2022/03/05 00:49:25;;;;;;;84.63;30.10;;;;;;;1.24;79.83;97625.19;4974628;28;20050;-82
2022/03/05 00:51:52;;;;;;;87.57;30.02;;;;;;;1.15;80.39;97613.50;4974020;28;20047;-83
2022/03/05 00:54:19;;;;;;;91.15;31.50;;;;;;;1.22;79.75;97612.16;4973141;28;20046;-82
2022/03/05 00:56:45;;;;;;;71.72;28.13;;;;;;;1.19;80.23;97615.81;4973244;28;20043;-86
2022/03/05 00:59:12;;;;;;;79.93;30.27;;;;;;;1.07;80.79;97603.53;4974466;28;20053;-85
2022/03/05 01:01:41;;;;;;;83.88;27.92;;;;;;;1.03;81.10;97607.31;4974285;28;20418;-84
2022/03/05 01:04:07;;;;;;;90.70;31.98;;;;;;;0.96;81.36;97587.63;4941525;28;20047;-83
2022/03/05 01:06:33;;;;;;;77.82;28.60;;;;;;;0.91;81.74;97593.22;4974646;28;20058;-83
2022/03/05 01:09:01;;;;;;;82.55;31.13;;;;;;;0.97;82.17;97584.06;4974455;28;20046;-85
2022/03/05 01:11:27;;;;;;;79.72;26.83;;;;;;;0.94;81.82;97576.38;4941485;28;20050;-85
2022/03/05 01:13:53;;;;;;;99.10;32.53;;;;;;;0.90;82.18;97569.63;4974432;28;20151;-83
2022/03/05 01:16:19;;;;;;;86.68;31.83;;;;;;;0.95;82.27;97564.91;4974112;28;20214;-84
2022/03/05 01:18:46;;;;;;;79.80;28.65;;;;;;;1.04;81.94;97566.91;4956880;28;20054;-84
2022/03/05 01:21:12;;;;;;;80.75;30.83;;;;;;;0.98;82.26;97559.44;4974004;28;20042;-84
2022/03/05 01:23:39;;;;;;;86.60;29.73;;;;;;;0.97;82.59;97549.84;4940706;28;20097;-84
2022/03/05 01:26:05;;;;;;;96.28;32.60;;;;;;;1.08;82.54;97543.84;4956644;28;20097;-84
2022/03/05 01:28:31;;;;;;;108.22;33.15;;;;;;;1.15;81.77;97526.69;4957023;28;20046;-84
2022/03/05 01:30:59;;;;;;;101.22;34.03;;;;;;;1.19;81.92;97523.72;4973949;28;20463;-84
2022/03/05 01:33:25;;;;;;;87.78;29.80;;;;;;;1.19;82.08;97513.19;4940602;28;20042;-85
2022/03/05 01:35:54;;;;;;;88.20;31.63;;;;;;;1.30;82.07;97514.22;4957069;28;20051;-85
2022/03/05 01:38:20;;;;;;;94.43;32.40;;;;;;;1.30;81.86;97508.94;4972653;28;20462;-84
2022/03/05 01:40:47;;;;;;;68.05;25.70;;;;;;;1.35;81.52;97506.81;4973652;28;20414;-85
2022/03/05 01:43:13;;;;;;;92.78;32.00;;;;;;;1.38;81.95;97514.50;4956506;28;20514;-85
2022/03/05 01:45:40;;;;;;;86.25;31.30;;;;;;;1.40;82.02;97513.44;4940560;28;20159;-85
2022/03/05 01:48:06;;;;;;;73.38;28.60;;;;;;;1.36;81.92;97511.16;4973907;28;20051;-84
2022/03/05 01:50:32;;;;;;;80.10;28.92;;;;;;;1.37;82.01;97495.25;4974005;28;20050;-84
2022/03/05 01:52:58;;;;;;;71.38;29.20;;;;;;;1.34;82.44;97490.19;4974347;28;20074;-83
2022/03/05 01:55:25;;;;;;;81.32;29.42;;;;;;;1.38;82.40;97488.19;4974471;28;20435;-84
2022/03/05 01:57:51;;;;;;;73.47;27.40;;;;;;;1.44;82.10;97487.75;4975774;28;20134;-84
2022/03/05 02:00:17;;;;;;;77.22;29.70;;;;;;;1.48;82.25;97486.56;4978417;28;20490;-84
2022/03/05 02:02:45;;;;;;;81.05;28.88;;;;;;;1.50;82.09;97483.81;4976844;28;20104;-84
2022/03/05 02:05:14;;;;;;;76.88;27.52;;;;;;;1.53;82.04;97480.97;4959979;28;20046;-85
2022/03/05 02:07:41;;;;;;;84.85;29.27;;;;;;;1.56;81.73;97484.22;4976335;28;20043;-83
2022/03/05 02:10:08;;;;;;;73.50;26.33;;;;;;;1.53;81.75;97476.53;4960061;28;20043;-83
2022/03/05 02:12:37;;;;;;;60.33;22.33;;;;;;;1.57;81.78;97485.03;4977929;28;20414;-84
2022/03/05 02:15:05;;;;;;;95.57;30.20;;;;;;;1.54;82.07;97486.09;4962275;28;20046;-83
2022/03/05 02:17:31;;;;;;;89.82;28.85;;;;;;;1.58;81.56;97482.31;4959848;28;20085;-84
2022/03/05 02:19:58;;;;;;;92.45;30.33;;;;;;;1.40;82.08;97484.50;4978723;28;20132;-85
2022/03/05 02:22:25;;;;;;;77.45;28.50;;;;;;;1.47;82.06;97479.63;4959467;28;20042;-84
2022/03/05 02:24:52;;;;;;;78.47;28.58;;;;;;;1.47;82.47;97469.09;4943871;28;20074;-83
2022/03/05 02:27:20;;;;;;;93.03;33.05;;;;;;;1.50;82.42;97471.47;4943758;28;20046;-83
2022/03/05 02:29:46;;;;;;;92.82;32.33;;;;;;;1.47;82.45;97463.81;4975453;28;20128;-83
2022/03/05 02:32:12;;;;;;;89.82;30.27;;;;;;;1.43;82.63;97459.75;4976621;28;20336;-83
2022/03/05 02:34:38;;;;;;;89.82;30.40;;;;;;;1.32;83.00;97449.16;4959691;28;20045;-84
2022/03/05 02:37:04;;;;;;;91.65;31.02;;;;;;;1.36;83.21;97456.72;4977592;28;20046;-83
2022/03/05 02:39:30;;;;;;;91.00;30.02;;;;;;;1.35;83.31;97460.28;4977655;28;20054;-82
2022/03/05 02:41:56;;;;;;;88.85;32.45;;;;;;;1.36;83.21;97451.44;4978137;28;20101;-83
2022/03/05 02:44:23;;;;;;;95.20;33.55;;;;;;;1.53;82.94;97447.56;4961433;28;20039;-84
2022/03/05 02:46:50;;;;;;;95.28;34.50;;;;;;;1.49;82.65;97435.56;4965076;28;20050;-82
2022/03/05 02:49:16;;;;;;;106.95;37.55;;;;;;;1.61;82.50;97445.19;4972071;28;20189;-83
2022/03/05 02:51:42;;;;;;;99.63;34.70;;;;;;;1.54;82.59;97449.22;4985258;28;20447;-83
2022/03/05 02:54:08;;;;;;;77.55;33.72;;;;;;;1.62;82.32;97441.63;4962648;28;20050;-82
2022/03/05 02:56:34;;;;;;;90.43;32.70;;;;;;;1.67;82.55;97442.13;4964903;28;20043;-83
2022/03/05 02:59:00;;;;;;;99.15;37.35;;;;;;;1.75;82.58;97436.28;4949181;28;20047;-84
2022/03/05 03:01:26;;;;;;;103.05;35.78;;;;;;;1.70;82.30;97423.47;4978696;28;20047;-81
2022/03/05 03:03:51;;;;;;;101.18;34.90;;;;;;;1.67;82.33;97413.16;4976569;28;20064;-82
2022/03/05 03:06:18;;;;;;;93.25;34.55;;;;;;;1.64;82.86;97423.06;4976149;28;20482;-84
2022/03/05 03:08:44;;;;;;;94.70;35.63;;;;;;;1.66;83.07;97426.44;4958214;28;20045;-83
2022/03/05 03:11:09;;;;;;;105.13;32.78;;;;;;;1.65;82.75;97408.94;4958975;28;20112;-81
2022/03/05 03:13:37;;;;;;;100.03;35.97;;;;;;;1.60;82.68;97417.19;4958790;28;20431;-84
2022/03/05 03:16:04;;;;;;;91.45;32.03;;;;;;;1.66;82.81;97411.47;4958824;28;20108;-86
2022/03/05 03:18:29;;;;;;;75.57;30.63;;;;;;;1.63;82.59;97403.81;4958974;28;20039;-85
2022/03/05 03:20:55;;;;;;;89.55;33.67;;;;;;;1.60;82.71;97398.75;4942787;28;20038;-85
2022/03/05 03:23:21;;;;;;;89.40;33.63;;;;;;;1.63;82.70;97395.06;4959495;28;20498;-85
2022/03/05 03:25:47;;;;;;;92.40;34.15;;;;;;;1.61;83.11;97386.44;4958940;28;20050;-84
2022/03/05 03:28:14;;;;;;;92.57;32.70;;;;;;;1.60;83.14;97382.13;4958952;28;20498;-85
2022/03/05 03:30:40;;;;;;;94.97;31.42;;;;;;;1.53;82.94;97367.72;4958960;28;20113;-87
2022/03/05 03:33:06;;;;;;;106.47;37.50;;;;;;;1.53;83.37;97371.19;4958839;28;20043;-86
2022/03/05 03:35:32;;;;;;;88.20;33.83;;;;;;;1.54;83.21;97364.97;4958468;28;20116;-84
2022/03/05 03:37:58;;;;;;;98.18;36.75;;;;;;;1.59;83.60;97352.31;4958424;28;20050;-83
2022/03/05 03:40:24;;;;;;;111.07;37.75;;;;;;;1.66;83.17;97358.81;4975786;28;20129;-83
2022/03/05 03:42:51;;;;;;;96.68;36.13;;;;;;;1.76;83.23;97342.28;4958010;28;20038;-83
2022/03/05 03:45:18;;;;;;;101.70;37.00;;;;;;;1.83;82.64;97346.13;4926061;28;20043;-85
2022/03/05 03:47:49;;;;;;;116.40;39.10;;;;;;;1.80;82.61;97338.47;4975277;28;20043;-85
2022/03/05 03:50:17;;;;;;;108.72;40.25;;;;;;;1.85;82.71;97338.97;4942040;28;20047;-85
2022/03/05 03:52:44;;;;;;;105.50;38.95;;;;;;;1.86;82.60;97343.28;4938536;29;20530;-84
2022/03/05 03:55:12;;;;;;;106.72;38.13;;;;;;;1.85;82.28;97338.97;4954743;29;20047;-83
2022/03/05 03:57:40;;;;;;;118.13;39.88;;;;;;;1.87;82.43;97329.97;4970628;28;20054;-84
2022/03/05 04:00:08;;;;;;;105.78;35.45;;;;;;;1.91;82.53;97320.03;4956383;29;20122;-83
2022/03/05 04:02:37;;;;;;;120.90;41.97;;;;;;;1.93;82.54;97312.88;4955952;28;20046;-86
2022/03/05 04:05:04;;;;;;;116.13;44.25;;;;;;;1.93;82.66;97297.91;4961162;28;20041;-81
2022/03/05 04:10:14;;;;;;;121.15;46.00;;;;;;;1.84;82.39;97276.69;4974020;28;20451;-80
2022/03/05 04:12:40;;;;;;;112.32;45.70;;;;;;;1.99;82.94;97288.66;4972656;28;20047;-83
2022/03/05 04:15:07;;;;;;;112.03;44.50;;;;;;;1.98;82.76;97289.63;4972968;28;20094;-79
2022/03/05 04:17:33;;;;;;;131.35;46.70;;;;;;;2.01;82.31;97276.22;4939466;28;20053;-82
2022/03/05 04:19:59;;;;;;;119.43;46.85;;;;;;;2.05;82.61;97282.91;4972918;28;20046;-82
2022/03/05 04:22:25;;;;;;;125.38;45.08;;;;;;;2.05;82.35;97274.19;4957432;28;20047;-83
2022/03/05 04:24:51;;;;;;;115.63;44.97;;;;;;;2.05;82.47;97280.28;4924518;28;20495;-82
2022/03/05 04:27:17;;;;;;;130.63;46.05;;;;;;;2.17;82.16;97268.78;4957018;28;20146;-89
2022/03/05 04:29:43;;;;;;;127.00;48.17;;;;;;;2.17;82.34;97268.78;4926361;28;20053;-81
2022/03/05 04:32:09;;;;;;;119.22;45.90;;;;;;;2.22;82.03;97264.94;4956999;28;20043;-81
2022/03/05 04:34:35;;;;;;;143.95;51.00;;;;;;;2.18;81.98;97244.09;4957243;28;20042;-80
2022/03/05 04:37:01;;;;;;;136.50;50.08;;;;;;;2.15;82.11;97248.78;4957328;28;20046;-83
2022/03/05 04:39:28;;;;;;;120.25;46.55;;;;;;;2.15;82.09;97244.34;4956380;28;20502;-82
2022/03/05 04:41:54;;;;;;;119.20;48.53;;;;;;;2.27;81.94;97244.34;4957467;28;20089;-84
2022/03/05 04:44:20;;;;;;;133.00;50.47;;;;;;;2.31;81.72;97243.13;4957202;28;20534;-80
2022/03/05 04:46:46;;;;;;;114.68;44.80;;;;;;;2.28;81.80;97235.44;4959486;28;20042;-82
2022/03/05 04:49:12;;;;;;;130.40;51.58;;;;;;;2.34;81.98;97237.59;4975814;28;20047;-78
2022/03/05 04:51:39;;;;;;;93.35;41.95;;;;;;;2.38;81.84;97231.13;4943935;28;20050;-83
2022/03/05 04:54:05;;;;;;;96.70;40.03;;;;;;;2.51;81.78;97229.16;4961685;28;20526;-84
2022/03/05 04:56:31;;;;;;;98.10;38.55;;;;;;;2.58;81.27;97216.31;4959088;28;20047;-84
2022/03/05 04:58:57;;;;;;;74.15;33.83;;;;;;;2.67;80.70;97221.69;4978400;28;20133;-80
2022/03/05 05:01:23;;;;;;;55.40;27.23;;;;;;;2.60;80.70;97222.31;4976123;28;20086;-81
2022/03/05 05:03:49;;;;;;;54.80;25.13;;;;;;;2.60;80.68;97209.97;4957948;28;20487;-80
2022/03/05 05:06:15;;;;;;;70.75;27.98;;;;;;;2.64;80.36;97219.28;4974287;28;20046;-81
2022/03/05 05:08:41;;;;;;;54.92;25.40;;;;;;;2.63;80.28;97216.78;4972040;28;20057;-82
2022/03/05 05:11:07;;;;;;;55.75;25.83;;;;;;;2.73;80.42;97215.06;4957016;28;20073;-80
2022/03/05 05:13:33;;;;;;;54.50;23.50;;;;;;;2.80;80.08;97210.97;4973729;28;20046;-83
2022/03/05 05:16:00;;;;;;;50.70;23.23;;;;;;;2.84;79.68;97209.72;4973817;28;20062;-79
2022/03/05 05:18:25;;;;;;;48.88;23.05;;;;;;;2.79;79.64;97205.81;4940673;28;20062;-82
2022/03/05 05:20:51;;;;;;;41.97;20.02;;;;;;;2.82;79.53;97189.72;4973522;28;20074;-83
2022/03/05 05:23:17;;;;;;;44.22;18.80;;;;;;;2.60;79.44;97180.13;4956129;28;20102;-82
2022/03/05 05:25:43;;;;;;;48.67;20.45;;;;;;;2.56;79.81;97178.69;4940521;28;20081;-83
2022/03/05 05:28:09;;;;;;;45.95;19.40;;;;;;;2.60;79.75;97175.69;4956329;28;20050;-83
2022/03/05 05:30:35;;;;;;;42.92;18.55;;;;;;;2.63;79.66;97178.06;4956282;28;20423;-84
2022/03/05 05:33:01;;;;;;;39.70;17.98;;;;;;;2.63;79.48;97162.25;4975386;28;20035;-81
2022/03/05 05:35:27;;;;;;;38.17;18.60;;;;;;;2.62;79.49;97179.00;4977279;28;20150;-83
2022/03/05 05:37:53;;;;;;;41.53;18.38;;;;;;;2.66;79.86;97177.78;4976809;28;20078;-81
2022/03/05 05:40:19;;;;;;;39.15;20.02;;;;;;;2.70;79.29;97169.63;4959939;28;20071;-79
2022/03/05 05:42:44;;;;;;;41.22;19.55;;;;;;;2.77;79.14;97165.53;4959958;28;20049;-83
2022/03/05 05:45:11;;;;;;;36.78;19.10;;;;;;;2.82;79.22;97158.91;4943960;28;20182;-83
2022/03/05 05:47:37;;;;;;;48.10;19.80;;;;;;;2.82;78.40;97163.31;4976329;28;20130;-83
2022/03/05 05:50:04;;;;;;;50.38;20.90;;;;;;;2.78;78.49;97151.34;4959750;28;20081;-82
2022/03/05 05:52:30;;;;;;;49.75;21.23;;;;;;;2.68;78.73;97148.66;4944203;28;20153;-84
2022/03/05 05:54:56;;;;;;;48.05;21.02;;;;;;;2.86;78.47;97148.94;4976794;28;20075;-82
2022/03/05 05:57:21;;;;;;;52.80;21.80;;;;;;;2.92;78.50;97138.69;4977201;28;20038;-82
2022/03/05 05:59:47;;;;;;;56.85;21.65;;;;;;;2.94;78.07;97137.75;4977469;28;20046;-82
2022/03/05 06:02:13;;;;;;;52.25;22.38;;;;;;;2.80;77.95;97133.63;4960376;28;20502;-85
2022/03/05 06:04:40;;;;;;;57.88;23.83;;;;;;;2.80;77.96;97128.34;4960105;28;20038;-81
2022/03/05 06:07:06;;;;;;;66.38;22.30;;;;;;;2.77;77.81;97128.59;4977215;28;20052;-81
2022/03/05 06:09:32;;;;;;;61.03;24.90;;;;;;;2.68;77.50;97120.47;4959003;28;20051;-80
2022/03/05 06:11:58;;;;;;;64.65;24.15;;;;;;;2.54;78.08;97118.16;4943218;28;20049;-82
2022/03/05 06:14:24;;;;;;;62.58;24.42;;;;;;;2.32;78.52;97110.34;4960728;28;20475;-82
2022/03/05 06:16:50;;;;;;;59.03;22.60;;;;;;;2.30;78.89;97101.75;4959777;28;20093;-83
2022/03/05 06:19:16;;;;;;;59.65;24.30;;;;;;;2.32;79.42;97090.09;4962266;28;20042;-80
2022/03/05 06:21:42;;;;;;;52.53;22.55;;;;;;;2.25;79.03;97091.53;4959359;28;20047;-81
2022/03/05 06:24:08;;;;;;;61.20;22.55;;;;;;;2.29;79.29;97092.13;4955940;28;20591;-82
2022/03/05 06:26:35;;;;;;;57.42;22.23;;;;;;;2.28;79.28;97085.19;4951275;28;20164;-83
2022/03/05 06:29:01;;;;;;;45.28;20.23;;;;;;;2.17;79.38;97070.25;4929137;28;20039;-84
2022/03/05 06:31:27;;;;;;;40.03;19.52;;;;;;;2.19;79.34;97071.81;4968945;28;20039;-83
2022/03/05 06:33:53;;;;;;;37.53;19.55;;;;;;;2.22;79.72;97062.84;4948959;28;20043;-81
2022/03/05 06:36:19;;;;;;;35.50;17.30;;;;;;;2.22;79.81;97054.91;4956566;28;20035;-83
2022/03/05 06:38:47;;;;;;;29.75;15.15;;;;;;;2.10;80.26;97035.66;4948154;28;20150;-81
2022/03/05 06:41:13;;;;;;;32.70;16.63;;;;;;;2.09;80.29;97039.28;4964236;28;20243;-80
2022/03/05 06:43:38;;;;;;;33.35;18.35;;;;;;;2.09;80.74;97033.16;4965468;28;20078;-81
2022/03/05 06:46:04;;;;;;;34.80;19.35;;;;;;;2.13;80.95;97035.41;4946481;28;20538;-81
2022/03/05 06:48:30;;;;;;;42.95;19.92;;;;;;;2.13;81.18;97011.69;4965013;28;20486;-82
2022/03/05 06:50:56;;;;;;;43.65;22.80;;;;;;;2.14;80.60;96994.06;4955780;28;20071;-80
2022/03/05 06:53:22;;;;;;;40.22;20.67;;;;;;;2.09;80.82;96989.19;4963193;28;20059;-81
2022/03/05 06:55:47;;;;;;;51.47;27.63;;;;;;;2.09;81.44;96986.56;4924217;28;20078;-80
2022/03/05 06:58:15;;;;;;;54.70;30.65;;;;;;;2.15;81.14;96979.97;4965279;28;20081;-83
2022/03/05 07:00:41;;;;;;;62.75;29.92;;;;;;;2.27;81.08;96970.19;4955806;28;20043;-82
2022/03/05 07:03:07;;;;;;;58.45;28.48;;;;;;;2.17;81.10;96975.38;4949692;28;20047;-82
2022/03/05 07:05:33;;;;;;;54.08;27.17;;;;;;;2.23;81.02;96968.78;4943311;28;20461;-82
2022/03/05 07:07:58;;;;;;;55.20;28.05;;;;;;;2.10;81.06;96946.06;4975857;28;20418;-83
2022/03/05 07:10:24;;;;;;;38.22;19.13;;;;;;;2.07;80.94;96941.06;4943297;28;20051;-82
2022/03/05 07:12:53;;;;;;;40.10;20.60;;;;;;;1.99;81.28;96938.22;4972668;28;20074;-87
2022/03/05 07:15:19;;;;;;;36.70;20.42;;;;;;;1.87;81.93;96923.44;4957392;28;20054;-83
2022/03/05 07:17:52;;;;;;;44.03;21.95;;;;;;;1.81;81.91;96931.88;4930704;28;20053;-83
2022/03/05 07:20:18;;;;;;;34.83;20.10;;;;;;;1.78;81.93;96909.25;4964971;28;20050;-83
2022/03/05 07:22:44;;;;;;;42.30;22.58;;;;;;;1.69;82.41;96900.34;4963595;28;20411;-82
2022/03/05 07:25:11;;;;;;;35.05;18.73;;;;;;;1.66;82.51;96902.38;4966070;28;20050;-82
2022/03/05 07:27:38;;;;;;;45.85;24.17;;;;;;;1.53;82.76;96889.38;4966564;28;20049;-83
2022/03/05 07:30:06;;;;;;;47.60;23.45;;;;;;;1.43;83.26;96875.31;4932440;28;20498;-82
2022/03/05 07:32:31;;;;;;;47.05;22.00;;;;;;;1.38;83.74;96872.22;4964790;28;20042;-82
2022/03/05 07:34:57;;;;;;;52.67;24.05;;;;;;;1.44;83.38;96874.34;4966178;28;20113;-81
2022/03/05 07:37:23;;;;;;;46.88;24.58;;;;;;;1.48;83.64;96875.78;4964223;28;20046;-83
2022/03/05 07:39:49;;;;;;;40.97;20.25;;;;;;;1.45;83.41;96870.75;4931720;28;20093;-84
2022/03/05 07:42:15;;;;;;;39.53;21.33;;;;;;;1.48;83.37;96865.25;4951405;28;20407;-83
2022/03/05 07:44:41;;;;;;;39.38;20.30;;;;;;;1.50;83.70;96862.47;4954542;28;20418;-83
2022/03/05 07:47:07;;;;;;;46.15;22.42;;;;;;;1.44;83.45;96854.13;4949398;28;20051;-84
2022/03/05 07:49:33;;;;;;;32.33;16.85;;;;;;;1.42;83.76;96845.50;4934581;28;20042;-83
2022/03/05 07:51:58;;;;;;;37.03;20.73;;;;;;;1.41;83.76;96837.75;4939490;28;20042;-82
2022/03/05 07:54:26;;;;;;;44.20;22.75;;;;;;;1.38;83.97;96822.22;4947491;28;20091;-85
2022/03/05 07:56:52;;;;;;;47.60;23.55;;;;;;;1.40;84.55;96817.66;4963464;28;20035;-84
2022/03/05 07:59:18;;;;;;;46.88;22.10;;;;;;;1.30;84.75;96814.94;4947201;28;20695;-85
2022/03/05 08:01:44;;;;;;;47.78;22.85;;;;;;;1.40;84.59;96802.72;4931760;28;20414;-84
2022/03/05 08:04:10;;;;;;;42.90;20.48;;;;;;;1.40;84.38;96793.97;4942659;29;20047;-86
2022/03/05 08:06:37;;;;;;;38.67;20.40;;;;;;;1.35;84.72;96790.88;4938526;29;20058;-88
2022/03/05 08:09:02;;;;;;;41.63;21.67;;;;;;;1.34;84.94;96789.22;4923456;29;20058;-85
2022/03/05 08:11:28;;;;;;;45.92;23.90;;;;;;;1.39;85.47;96781.75;4923553;29;20039;-86
2022/03/05 08:13:54;;;;;;;45.63;24.88;;;;;;;1.54;85.15;96775.19;4922967;28;20411;-84
2022/03/05 08:16:20;;;;;;;49.95;26.55;;;;;;;1.57;84.81;96774.94;4955739;28;20050;-85
2022/03/05 08:18:46;;;;;;;57.42;29.48;;;;;;;1.59;84.36;96767.78;4938977;29;20098;-86
2022/03/05 08:21:12;;;;;;;61.78;29.95;;;;;;;1.55;84.24;96755.84;4971247;28;20581;-83
2022/03/05 08:23:38;;;;;;;72.07;33.53;;;;;;;1.51;84.61;96749.16;4943144;28;20039;-83
2022/03/05 08:26:05;;;;;;;80.30;34.65;;;;;;;1.61;84.74;96750.03;4934749;28;20050;-84
2022/03/05 08:28:31;;;;;;;77.88;36.97;;;;;;;1.60;84.10;96737.84;4947898;29;20050;-83
2022/03/05 08:30:57;;;;;;;87.80;37.92;;;;;;;1.58;84.16;96729.25;4932992;28;20035;-83
2022/03/05 08:33:23;;;;;;;84.93;36.55;;;;;;;1.67;84.55;96724.97;4966084;28;20039;-84
2022/03/05 08:35:49;;;;;;;95.70;41.63;;;;;;;1.72;84.54;96719.31;4946212;28;20178;-84
2022/03/05 08:38:15;;;;;;;113.13;46.85;;;;;;;1.69;83.96;96704.59;4931745;28;20039;-83
2022/03/05 08:40:41;;;;;;;120.32;45.42;;;;;;;1.61;83.76;96697.38;4957172;28;20054;-85
2022/03/05 08:43:07;;;;;;;93.93;39.25;;;;;;;1.59;84.33;96701.94;4947084;28;20086;-84
2022/03/05 08:45:33;;;;;;;125.70;49.45;;;;;;;1.48;84.20;96678.34;4965395;28;20586;-84
2022/03/05 08:47:59;;;;;;;84.35;37.42;;;;;;;1.40;84.55;96678.16;4955516;28;20083;-82
2022/03/05 08:50:25;;;;;;;99.47;41.00;;;;;;;1.45;84.98;96683.84;4941461;28;20143;-81
2022/03/05 08:52:51;;;;;;;107.70;45.92;;;;;;;1.62;84.64;96680.63;4945701;28;20133;-80
2022/03/05 08:55:19;;;;;;;120.13;50.45;;;;;;;1.77;84.68;96674.97;4949899;28;20502;-81
2022/03/05 08:57:45;;;;;;;108.57;46.40;;;;;;;1.76;84.02;96668.03;4947657;28;20050;-81
2022/03/05 09:00:13;;;;;;;117.43;49.67;;;;;;;1.69;83.75;96665.97;4950943;28;20524;-79
2022/03/05 09:02:39;;;;;;;102.85;44.53;;;;;;;1.85;84.05;96659.34;4957185;29;20085;-81
2022/03/05 09:05:05;;;;;;;75.65;35.33;;;;;;;1.72;83.47;96648.22;4944708;29;20049;-80
2022/03/05 09:07:31;;;;;;;87.70;39.38;;;;;;;1.84;83.82;96652.41;4948467;28;20451;-81
2022/03/05 09:09:57;;;;;;;78.90;37.40;;;;;;;1.87;83.70;96644.22;4963166;28;20039;-81
2022/03/05 09:12:23;;;;;;;78.28;35.30;;;;;;;1.82;83.52;96636.75;4954908;28;20108;-81
2022/03/05 09:14:49;;;;;;;61.22;30.98;;;;;;;1.81;83.32;96629.00;4965476;28;20062;-81
2022/03/05 09:17:16;;;;;;;72.60;34.03;;;;;;;1.82;83.08;96630.66;4963073;28;20129;-79
2022/03/05 09:19:42;;;;;;;57.47;30.60;;;;;;;1.88;83.42;96614.28;4945531;28;20043;-81
2022/03/05 09:22:10;;;;;;;61.67;28.73;;;;;;;1.95;83.25;96604.88;4959759;28;20502;-83
2022/03/05 09:24:37;;;;;;;50.60;28.40;;;;;;;2.05;83.28;96600.47;4956024;28;20105;-82
2022/03/05 09:27:07;;;;;;;52.90;29.05;;;;;;;2.14;83.04;96599.66;4947111;28;20039;-84
2022/03/05 09:29:32;;;;;;;57.80;30.20;;;;;;;2.09;82.64;96583.41;4947006;28;20133;-82
2022/03/05 09:31:59;;;;;;;43.83;24.23;;;;;;;2.12;82.47;96580.50;4948189;28;20185;-83
2022/03/05 09:34:25;;;;;;;42.85;24.50;;;;;;;2.04;81.96;96577.72;4938541;28;20049;-82
2022/03/05 09:36:51;;;;;;;47.53;24.90;;;;;;;2.00;81.84;96573.69;4931372;28;20047;-83
2022/03/05 09:39:16;;;;;;;40.38;23.65;;;;;;;2.07;82.21;96561.66;4945899;28;20078;-84
2022/03/05 09:41:42;;;;;;;37.60;21.88;;;;;;;2.11;82.55;96556.94;4964799;28;20396;-80
2022/03/05 09:44:08;;;;;;;42.25;24.25;;;;;;;1.86;82.49;96553.03;4962607;28;20454;-80
2022/03/05 09:46:36;;;;;;;38.85;23.20;;;;;;;1.86;82.28;96547.75;4938704;29;20071;-84
2022/03/05 09:49:03;;;;;;;38.83;20.83;;;;;;;1.75;82.72;96540.81;4936943;29;20058;-81
2022/03/05 09:51:30;;;;;;;39.63;22.42;;;;;;;1.79;82.60;96526.41;4920480;29;20502;-83
2022/03/05 09:53:56;;;;;;;34.08;19.17;;;;;;;1.92;82.89;96528.78;4936771;29;20066;-79
2022/03/05 09:56:22;;;;;;;35.05;20.58;;;;;;;1.93;82.95;96522.53;4937161;29;20066;-83
2022/03/05 09:58:50;;;;;;;32.63;19.65;;;;;;;1.94;82.59;96513.66;4952973;29;20133;-80
2022/03/05 10:01:17;;;;;;;31.40;17.98;;;;;;;1.85;82.94;96509.22;4954234;29;20047;-80
2022/03/05 10:03:46;;;;;;;25.90;15.00;;;;;;;1.85;82.87;96503.97;4939801;29;20047;-81
2022/03/05 10:06:23;;;;;;;25.58;16.40;;;;;;;1.84;82.91;96507.53;4960118;29;20047;-81
2022/03/05 10:08:55;;;;;;;24.60;14.88;;;;;;;1.77;82.61;96480.09;4942130;29;20056;-81
2022/03/05 10:11:22;;;;;;;21.42;13.27;;;;;;;1.74;83.09;96485.66;4956603;28;20046;-81
2022/03/05 10:13:48;;;;;;;28.45;16.58;;;;;;;1.64;82.95;96462.75;4936963;29;20474;-85
2022/03/05 10:16:29;;;;;;;26.85;16.98;;;;;;;1.78;83.44;96472.06;4921736;28;20078;-79
2022/03/05 10:19:15;;;;;;;29.90;16.80;;;;;;;1.67;83.41;96462.50;4958451;28;20138;-83
2022/03/05 10:21:58;;;;;;;19.17;12.57;;;;;;;1.54;83.63;96453.19;4949004;29;20186;-80
2022/03/05 10:24:36;;;;;;;20.85;13.07;;;;;;;1.62;83.68;96461.25;4943831;29;20051;-84
2022/03/05 10:27:04;;;;;;;23.42;14.25;;;;;;;1.56;83.65;96457.38;4924851;29;20450;-82
2022/03/05 10:29:37;;;;;;;18.50;11.75;;;;;;;1.51;83.85;96443.78;4940100;28;20079;-84
2022/03/05 10:32:11;;;;;;;23.17;13.90;;;;;;;1.49;84.35;96442.25;4923829;29;20039;-84
2022/03/05 10:34:48;;;;;;;13.90;10.10;;;;;;;1.40;84.03;96436.03;4939595;29;20141;-82
2022/03/05 10:37:15;;;;;;;17.13;10.05;;;;;;;1.35;84.50;96427.69;4924848;29;20051;-82
2022/03/05 10:39:41;;;;;;;21.52;12.85;;;;;;;1.39;84.55;96434.34;4940102;28;20050;-82
2022/03/05 10:42:16;;;;;;;20.35;14.38;;;;;;;1.48;84.72;96436.16;4956910;29;20051;-84
2022/03/05 10:44:41;;;;;;;20.90;14.35;;;;;;;1.56;84.91;96427.56;4940692;29;20526;-85
2022/03/05 10:47:07;;;;;;;19.95;14.75;;;;;;;1.56;84.98;96431.03;4964684;28;20070;-83
2022/03/05 10:49:38;;;;;;;19.20;12.70;;;;;;;1.63;84.61;96429.50;4932244;28;20067;-85
2022/03/05 10:52:06;;;;;;;21.50;14.75;;;;;;;1.62;84.23;96435.75;4965283;28;20494;-86
2022/03/05 10:54:41;;;;;;;14.13;9.80;;;;;;;1.50;83.94;96420.22;4940350;28;20050;-88
2022/03/05 10:57:23;;;;;;;18.98;13.18;;;;;;;1.41;83.80;96420.09;4947893;28;20421;-87
2022/03/05 10:59:54;;;;;;;17.35;11.68;;;;;;;1.41;84.33;96427.16;4953309;29;20159;-89
2022/03/05 11:02:21;;;;;;;21.77;14.15;;;;;;;1.37;84.50;96418.69;4923459;29;20055;-86
2022/03/05 11:04:48;;;;;;;20.48;12.50;;;;;;;1.36;84.19;96427.56;4925045;29;20430;-84
2022/03/05 11:07:16;;;;;;;22.08;13.73;;;;;;;1.41;84.62;96411.38;4957322;29;20055;-85
2022/03/05 11:09:43;;;;;;;21.67;15.25;;;;;;;1.43;84.55;96415.53;4944569;29;20525;-87
2022/03/05 11:12:14;;;;;;;18.73;12.82;;;;;;;1.45;84.41;96408.31;4963152;28;20050;-85
2022/03/05 11:14:44;;;;;;;21.98;14.85;;;;;;;1.49;84.27;96408.88;4937675;29;20065;-85
2022/03/05 11:17:11;;;;;;;23.95;15.68;;;;;;;1.49;84.42;96387.81;4954347;28;20051;-87
2022/03/05 11:19:38;;;;;;;25.15;14.55;;;;;;;1.54;84.12;96390.00;4965622;28;20038;-86
2022/03/05 11:22:05;;;;;;;20.63;12.73;;;;;;;1.59;83.97;96393.09;4946620;28;20137;-85
2022/03/05 11:24:39;;;;;;;21.08;12.18;;;;;;;1.46;83.77;96382.81;4944575;28;20046;-88